Time;durP1;ratioP1;P1;durP2;ratioP2;P2;SDS_P1;SDS_P2;PMS_P1;PMS_P2;Temp;Humidity;BMP_temperature;BMP_pressure;BME280_temperature;BME280_humidity;BME280_pressure;Samples;Min_cycle;Max_cycle;Signal;HPM_P1;HPM_P2
2023/09/20 00:00:32;;;;;;;1.83;1.20;;;;;;;;;;4997040;28;20060;-69
2023/09/20 00:02:58;;;;;;;1.85;1.27;;;;;;;;;;4997684;28;20042;-70
2023/09/20 00:05:24;;;;;;;4.47;1.55;;;;;;;;;;4997941;28;20041;-70
2023/09/20 00:07:54;;;;;;;1.48;1.38;;;;;;;;;;4998217;28;20057;-70
2023/09/20 00:10:24;;;;;;;1.75;1.50;;;;;;;;;;4997163;28;20952;-70
2023/09/20 00:12:50;;;;;;;5.35;1.50;;;;;;;;;;4997970;28;21608;-70
2023/09/20 00:15:16;;;;;;;2.05;1.73;;;;;;;;;;4997641;28;20053;-69
2023/09/20 00:17:43;;;;;;;2.47;1.40;;;;;;;;;;4997297;28;20057;-69
2023/09/20 00:20:14;;;;;;;1.45;1.13;;;;;;;;;;4997720;28;20396;-69
2023/09/20 00:22:42;;;;;;;1.30;1.20;;;;;;;;;;4996330;28;20045;-70
2023/09/20 00:25:12;;;;;;;1.30;1.20;;;;;;;;;;4997079;28;20107;-69
2023/09/20 00:27:38;;;;;;;1.27;1.15;;;;;;;;;;4998073;28;20573;-69
2023/09/20 00:30:14;;;;;;;1.40;1.30;;;;;;;;;;4997193;28;20073;-69
2023/09/20 00:32:40;;;;;;;1.33;1.23;;;;;;;;;;4995424;28;20070;-69
2023/09/20 00:35:08;;;;;;;1.60;1.50;;;;;;;;;;4995833;28;20050;-69
2023/09/20 00:37:34;;;;;;;1.73;1.33;;;;;;;;;;4997870;28;20089;-69
2023/09/20 00:39:59;;;;;;;1.60;1.50;;;;;;;;;;4995953;28;20422;-71
2023/09/20 00:42:27;;;;;;;4.22;1.35;;;;;;;;;;5012825;28;20042;-70
2023/09/20 00:44:53;;;;;;;3.22;1.42;;;;;;;;;;4997131;28;20073;-69
2023/09/20 00:47:20;;;;;;;1.83;1.40;;;;;;;;;;4997167;28;20104;-70
2023/09/20 00:49:46;;;;;;;1.55;1.45;;;;;;;;;;4996083;28;20050;-69
2023/09/20 00:52:13;;;;;;;1.50;1.40;;;;;;;;;;4997392;28;20058;-69
2023/09/20 00:54:40;;;;;;;2.60;1.60;;;;;;;;;;4996357;28;20057;-69
2023/09/20 00:57:09;;;;;;;1.45;1.30;;;;;;;;;;4995372;28;20060;-71
2023/09/20 00:59:35;;;;;;;1.70;1.20;;;;;;;;;;5012291;28;20418;-69
2023/09/20 01:02:02;;;;;;;1.63;1.52;;;;;;;;;;4997137;28;20579;-69
2023/09/20 01:04:28;;;;;;;1.60;1.50;;;;;;;;;;4996162;28;20426;-69
2023/09/20 01:06:55;;;;;;;1.88;1.65;;;;;;;;;;4996332;28;20050;-71
2023/09/20 01:09:22;;;;;;;1.73;1.63;;;;;;;;;;4994119;28;20212;-71
2023/09/20 01:11:48;;;;;;;2.97;1.55;;;;;;;;;;4994739;28;20529;-71
2023/09/20 01:14:14;;;;;;;2.13;1.60;;;;;;;;;;4977677;28;20074;-71
2023/09/20 01:16:39;;;;;;;4.72;1.50;;;;;;;;;;4994108;28;20045;-71
2023/09/20 01:19:06;;;;;;;1.58;1.40;;;;;;;;;;5010487;28;20462;-71
2023/09/20 01:21:39;;;;;;;1.48;1.35;;;;;;;;;;4998038;28;20045;-71
2023/09/20 01:24:06;;;;;;;1.38;1.27;;;;;;;;;;5015756;28;20435;-71
2023/09/20 01:26:33;;;;;;;2.97;1.42;;;;;;;;;;4983586;28;20084;-71
2023/09/20 01:28:58;;;;;;;2.65;1.65;;;;;;;;;;5015451;28;20046;-71
2023/09/20 01:31:23;;;;;;;3.63;1.40;;;;;;;;;;5000191;28;20042;-71
2023/09/20 01:33:49;;;;;;;1.98;1.23;;;;;;;;;;5001249;28;20490;-71
2023/09/20 01:36:15;;;;;;;1.38;1.27;;;;;;;;;;5000356;28;20061;-71
2023/09/20 01:38:42;;;;;;;1.38;1.23;;;;;;;;;;4999989;28;20042;-71
2023/09/20 01:41:07;;;;;;;5.00;1.90;;;;;;;;;;4998088;28;20144;-71
2023/09/20 01:43:34;;;;;;;1.85;1.60;;;;;;;;;;5015822;28;20042;-69
2023/09/20 01:46:02;;;;;;;2.53;1.40;;;;;;;;;;5015424;28;20042;-72
2023/09/20 01:48:28;;;;;;;1.23;1.10;;;;;;;;;;5000701;28;20064;-71
2023/09/20 01:50:54;;;;;;;1.20;1.00;;;;;;;;;;4998966;28;20135;-71
2023/09/20 01:53:19;;;;;;;1.20;1.10;;;;;;;;;;4998116;28;20069;-69
2023/09/20 01:55:44;;;;;;;4.05;0.98;;;;;;;;;;4999458;28;20137;-69
2023/09/20 01:58:12;;;;;;;1.40;1.10;;;;;;;;;;4998575;28;20780;-70
2023/09/20 02:00:42;;;;;;;1.00;1.00;;;;;;;;;;4998789;28;20038;-70
2023/09/20 02:03:13;;;;;;;1.30;0.98;;;;;;;;;;4999712;28;20057;-69
2023/09/20 02:05:40;;;;;;;1.05;1.00;;;;;;;;;;5015283;28;20111;-69
2023/09/20 02:08:07;;;;;;;1.35;1.25;;;;;;;;;;4998616;28;20506;-69
2023/09/20 02:10:34;;;;;;;1.30;1.20;;;;;;;;;;5014822;28;20038;-70
2023/09/20 02:13:00;;;;;;;1.30;1.20;;;;;;;;;;5000563;28;20132;-69
2023/09/20 02:15:27;;;;;;;1.08;1.00;;;;;;;;;;5014700;28;20140;-70
2023/09/20 02:17:53;;;;;;;5.18;0.98;;;;;;;;;;4998926;28;20170;-69
2023/09/20 02:20:23;;;;;;;1.17;1.08;;;;;;;;;;4999520;28;20088;-69
2023/09/20 02:22:53;;;;;;;0.93;0.93;;;;;;;;;;4999674;28;20042;-69
2023/09/20 02:25:22;;;;;;;1.00;0.90;;;;;;;;;;5014027;28;20077;-69
2023/09/20 02:27:54;;;;;;;2.20;0.80;;;;;;;;;;4998763;28;20507;-69
2023/09/20 02:30:24;;;;;;;1.88;1.02;;;;;;;;;;4999654;28;20050;-69
2023/09/20 02:32:53;;;;;;;1.27;1.08;;;;;;;;;;4999700;28;20056;-69
2023/09/20 02:35:19;;;;;;;1.00;0.90;;;;;;;;;;4998188;28;20050;-69
2023/09/20 02:37:46;;;;;;;1.15;1.00;;;;;;;;;;5014663;28;20029;-69
2023/09/20 02:40:18;;;;;;;1.13;1.10;;;;;;;;;;4999264;28;20068;-69
2023/09/20 02:42:48;;;;;;;1.67;1.00;;;;;;;;;;4997850;28;20503;-69
2023/09/20 02:45:15;;;;;;;5.03;1.00;;;;;;;;;;5013941;28;20657;-69
2023/09/20 02:47:43;;;;;;;1.55;0.93;;;;;;;;;;4997771;28;20046;-69
2023/09/20 02:50:12;;;;;;;1.92;0.95;;;;;;;;;;4997883;28;20061;-70
2023/09/20 02:52:39;;;;;;;1.17;1.08;;;;;;;;;;4999334;28;20384;-70
2023/09/20 02:55:07;;;;;;;1.40;1.13;;;;;;;;;;5014569;28;20523;-70
2023/09/20 02:57:34;;;;;;;4.05;1.15;;;;;;;;;;4998007;28;20052;-70
2023/09/20 02:59:59;;;;;;;1.20;1.10;;;;;;;;;;4997763;28;20057;-69
2023/09/20 03:02:28;;;;;;;1.00;0.90;;;;;;;;;;4997236;28;20034;-69
2023/09/20 03:04:53;;;;;;;1.27;1.15;;;;;;;;;;5014057;28;20049;-69
2023/09/20 03:07:23;;;;;;;1.75;0.98;;;;;;;;;;4997333;28;20045;-69
2023/09/20 03:09:49;;;;;;;1.55;1.30;;;;;;;;;;4997383;28;20042;-69
2023/09/20 03:12:14;;;;;;;1.15;1.05;;;;;;;;;;4997067;28;20064;-69
2023/09/20 03:14:41;;;;;;;1.23;1.13;;;;;;;;;;4997094;28;20042;-70
2023/09/20 03:17:07;;;;;;;1.30;1.20;;;;;;;;;;4997413;28;20053;-69
2023/09/20 03:19:34;;;;;;;1.30;1.20;;;;;;;;;;5013918;28;20038;-69
2023/09/20 03:22:00;;;;;;;1.20;1.10;;;;;;;;;;4997247;28;20050;-69
2023/09/20 03:24:29;;;;;;;2.13;1.05;;;;;;;;;;4980431;28;20045;-69
2023/09/20 03:26:55;;;;;;;1.30;1.20;;;;;;;;;;4996713;28;20049;-70
2023/09/20 03:29:23;;;;;;;1.95;1.20;;;;;;;;;;4996986;28;20163;-69
2023/09/20 03:31:50;;;;;;;1.20;1.10;;;;;;;;;;4996738;28;20042;-69
2023/09/20 03:34:16;;;;;;;1.30;1.10;;;;;;;;;;4996598;28;20052;-69
2023/09/20 03:36:43;;;;;;;2.03;1.05;;;;;;;;;;4996891;28;20124;-70
2023/09/20 03:39:11;;;;;;;1.17;1.08;;;;;;;;;;5010227;28;20038;-69
2023/09/20 03:41:38;;;;;;;1.13;1.05;;;;;;;;;;5013227;28;20149;-69
2023/09/20 03:44:05;;;;;;;1.08;1.02;;;;;;;;;;4996851;28;20078;-70
2023/09/20 03:46:32;;;;;;;1.90;0.98;;;;;;;;;;4995436;28;20045;-70
2023/09/20 03:48:58;;;;;;;1.33;1.10;;;;;;;;;;4996364;28;20603;-70
2023/09/20 03:51:25;;;;;;;0.77;0.77;;;;;;;;;;4996461;28;20511;-69
2023/09/20 03:53:50;;;;;;;1.10;1.00;;;;;;;;;;4996209;28;20053;-69
2023/09/20 03:56:19;;;;;;;2.88;1.08;;;;;;;;;;4996316;28;20067;-70
2023/09/20 03:58:45;;;;;;;2.90;1.02;;;;;;;;;;4996296;28;20993;-70
2023/09/20 04:01:11;;;;;;;1.10;1.00;;;;;;;;;;4996558;28;20053;-69
2023/09/20 04:03:37;;;;;;;1.25;1.15;;;;;;;;;;5012978;28;20042;-69
2023/09/20 04:06:03;;;;;;;6.50;1.08;;;;;;;;;;4996517;28;20069;-69
2023/09/20 04:08:29;;;;;;;1.25;1.15;;;;;;;;;;4996427;28;20045;-69
2023/09/20 04:10:56;;;;;;;1.30;1.20;;;;;;;;;;5013065;28;20447;-69
2023/09/20 04:13:23;;;;;;;1.80;1.50;;;;;;;;;;4996186;28;20179;-69
2023/09/20 04:15:49;;;;;;;1.88;1.70;;;;;;;;;;4997844;28;20041;-69
2023/09/20 04:18:15;;;;;;;1.48;1.38;;;;;;;;;;4997520;28;20050;-70
2023/09/20 04:20:46;;;;;;;1.63;1.52;;;;;;;;;;4996514;28;20044;-69
2023/09/20 04:23:12;;;;;;;1.52;1.40;;;;;;;;;;5013215;28;20037;-70
2023/09/20 04:25:39;;;;;;;1.38;1.25;;;;;;;;;;4996338;28;20046;-69
2023/09/20 04:28:05;;;;;;;1.50;1.40;;;;;;;;;;4996327;28;20049;-69
2023/09/20 04:30:30;;;;;;;1.95;1.30;;;;;;;;;;4995654;28;20510;-69
2023/09/20 04:32:56;;;;;;;1.58;1.48;;;;;;;;;;4995879;28;20049;-69
2023/09/20 04:35:31;;;;;;;2.00;1.33;;;;;;;;;;4995911;28;20046;-70
2023/09/20 04:37:57;;;;;;;6.32;1.50;;;;;;;;;;4995658;28;20073;-70
2023/09/20 04:40:24;;;;;;;5.30;1.33;;;;;;;;;;4994853;28;20038;-70
2023/09/20 04:42:49;;;;;;;2.92;1.40;;;;;;;;;;4997013;28;20052;-70
2023/09/20 04:45:19;;;;;;;2.75;1.40;;;;;;;;;;4995271;28;20096;-69
2023/09/20 04:47:45;;;;;;;1.90;1.45;;;;;;;;;;4994643;28;20573;-69
2023/09/20 04:50:12;;;;;;;2.00;1.80;;;;;;;;;;4995698;28;20041;-70
2023/09/20 04:52:38;;;;;;;2.63;1.48;;;;;;;;;;5010261;28;20060;-69
2023/09/20 04:55:05;;;;;;;1.83;1.55;;;;;;;;;;5010124;28;20057;-70
2023/09/20 04:57:34;;;;;;;2.05;1.58;;;;;;;;;;4996745;28;20139;-69
2023/09/20 04:59:59;;;;;;;2.17;1.48;;;;;;;;;;4998119;28;20300;-69
2023/09/20 05:02:25;;;;;;;3.20;1.52;;;;;;;;;;5014360;28;20600;-69
2023/09/20 05:04:55;;;;;;;2.45;1.73;;;;;;;;;;4997655;28;20042;-69
2023/09/20 05:07:21;;;;;;;4.40;1.70;;;;;;;;;;4998234;28;20115;-69
2023/09/20 05:09:49;;;;;;;1.65;1.55;;;;;;;;;;5015907;28;20518;-70
2023/09/20 05:12:15;;;;;;;2.35;1.55;;;;;;;;;;4992761;28;20137;-69
2023/09/20 05:14:42;;;;;;;1.80;1.55;;;;;;;;;;4994804;28;20046;-70
2023/09/20 05:17:08;;;;;;;2.85;1.40;;;;;;;;;;4998175;28;20560;-70
2023/09/20 05:19:33;;;;;;;5.55;1.40;;;;;;;;;;4996426;28;20050;-70
2023/09/20 05:22:00;;;;;;;1.98;1.60;;;;;;;;;;4996003;28;20046;-70
2023/09/20 05:24:26;;;;;;;1.90;1.65;;;;;;;;;;5012025;28;20045;-70
2023/09/20 05:26:53;;;;;;;1.58;1.48;;;;;;;;;;5013477;28;20136;-70
2023/09/20 05:29:18;;;;;;;1.40;1.23;;;;;;;;;;4999677;28;20049;-69
2023/09/20 05:31:44;;;;;;;2.38;1.60;;;;;;;;;;5015114;28;20080;-69
2023/09/20 05:34:09;;;;;;;1.63;1.40;;;;;;;;;;4998967;28;20042;-70
2023/09/20 05:36:35;;;;;;;1.60;1.30;;;;;;;;;;4999816;28;20050;-72
2023/09/20 05:39:01;;;;;;;3.28;1.27;;;;;;;;;;4997194;28;20049;-70
2023/09/20 05:41:27;;;;;;;3.53;1.40;;;;;;;;;;4999153;28;20117;-70
2023/09/20 05:43:53;;;;;;;1.73;1.05;;;;;;;;;;5000501;28;20049;-70
2023/09/20 05:46:19;;;;;;;1.08;1.08;;;;;;;;;;5000310;28;20042;-70
2023/09/20 05:48:44;;;;;;;1.85;1.23;;;;;;;;;;4999887;28;20038;-70
2023/09/20 05:51:14;;;;;;;3.28;1.20;;;;;;;;;;5000883;28;20054;-70
2023/09/20 05:53:42;;;;;;;1.10;1.00;;;;;;;;;;4999456;28;20042;-73
2023/09/20 05:56:10;;;;;;;1.13;1.02;;;;;;;;;;4995897;28;20235;-70
2023/09/20 05:58:35;;;;;;;1.10;1.00;;;;;;;;;;4996894;28;20058;-72
2023/09/20 06:01:01;;;;;;;2.75;1.00;;;;;;;;;;4999011;28;20052;-72
2023/09/20 06:03:26;;;;;;;0.98;0.88;;;;;;;;;;4998369;28;20133;-72
2023/09/20 06:05:52;;;;;;;1.35;1.08;;;;;;;;;;4999337;28;20084;-73
2023/09/20 06:08:17;;;;;;;1.00;1.00;;;;;;;;;;4999407;28;20050;-73
2023/09/20 06:10:44;;;;;;;1.10;1.00;;;;;;;;;;4998926;28;20657;-73
2023/09/20 06:13:10;;;;;;;1.77;0.90;;;;;;;;;;5000343;28;20132;-73
2023/09/20 06:15:37;;;;;;;1.70;1.25;;;;;;;;;;4999837;28;20133;-73
2023/09/20 06:18:02;;;;;;;3.03;1.30;;;;;;;;;;4998310;28;20042;-72
2023/09/20 06:20:28;;;;;;;1.40;1.20;;;;;;;;;;5014475;28;20417;-70
2023/09/20 06:22:55;;;;;;;1.25;1.10;;;;;;;;;;5014867;28;20165;-69
2023/09/20 06:25:22;;;;;;;1.30;1.08;;;;;;;;;;4999124;28;20108;-73
2023/09/20 06:27:55;;;;;;;1.33;1.13;;;;;;;;;;4998385;28;20041;-69
2023/09/20 06:30:21;;;;;;;1.40;0.98;;;;;;;;;;5000660;28;21144;-69
2023/09/20 06:32:48;;;;;;;1.00;1.00;;;;;;;;;;4997881;28;20099;-69
2023/09/20 06:35:19;;;;;;;3.05;1.25;;;;;;;;;;5000469;28;20053;-70
2023/09/20 06:37:47;;;;;;;;;;;;;;;;;;5001021;28;20034;-72
2023/09/20 06:40:33;;;;;;;1.15;0.90;;;;;;;;;;4999876;28;20309;-71
2023/09/20 06:43:00;;;;;;;3.58;0.95;;;;;;;;;;5000219;28;20120;-72
2023/09/20 06:45:27;;;;;;;6.43;1.60;;;;;;;;;;5000658;28;20045;-71
2023/09/20 06:47:52;;;;;;;3.60;1.10;;;;;;;;;;4998147;28;20064;-73
2023/09/20 06:50:18;;;;;;;0.80;0.80;;;;;;;;;;4998935;28;21052;-73
2023/09/20 06:52:43;;;;;;;0.90;0.90;;;;;;;;;;4998359;28;20045;-72
2023/09/20 06:55:17;;;;;;;1.15;0.93;;;;;;;;;;4999975;28;20636;-70
2023/09/20 06:57:43;;;;;;;1.92;1.00;;;;;;;;;;4998316;28;20042;-71
2023/09/20 07:00:24;;;;;;;1.10;0.90;;;;;;;;;;4998038;28;20133;-70
2023/09/20 07:02:51;;;;;;;1.45;0.88;;;;;;;;;;4998788;28;20489;-71
2023/09/20 07:05:21;;;;;;;0.73;0.70;;;;;;;;;;4999581;28;20041;-71
2023/09/20 07:07:47;;;;;;;5.50;1.10;;;;;;;;;;5013845;28;20155;-71
2023/09/20 07:10:12;;;;;;;1.88;1.00;;;;;;;;;;4998822;28;20053;-72
2023/09/20 07:12:38;;;;;;;1.58;0.90;;;;;;;;;;4996756;28;20056;-72
2023/09/20 07:15:09;;;;;;;0.70;0.70;;;;;;;;;;4997097;28;20053;-72
2023/09/20 07:17:35;;;;;;;1.17;0.90;;;;;;;;;;4998543;28;20503;-72
2023/09/20 07:20:08;;;;;;;0.80;0.80;;;;;;;;;;4998136;28;20590;-71
2023/09/20 07:22:34;;;;;;;1.05;0.85;;;;;;;;;;4997909;28;20050;-72
2023/09/20 07:25:04;;;;;;;3.17;1.05;;;;;;;;;;4998687;28;20129;-73
2023/09/20 07:27:32;;;;;;;2.85;1.00;;;;;;;;;;4998027;28;20046;-73
2023/09/20 07:29:59;;;;;;;1.92;1.20;;;;;;;;;;4997425;28;20502;-72
2023/09/20 07:32:25;;;;;;;1.50;0.80;;;;;;;;;;4996852;28;20056;-72
2023/09/20 07:34:57;;;;;;;2.63;0.80;;;;;;;;;;4997455;28;20054;-71
2023/09/20 07:37:25;;;;;;;0.75;0.63;;;;;;;;;;4996979;28;20046;-71
2023/09/20 07:39:51;;;;;;;1.77;1.00;;;;;;;;;;4998121;28;20050;-71
2023/09/20 07:42:16;;;;;;;1.10;1.00;;;;;;;;;;4998871;28;20059;-72
2023/09/20 07:44:43;;;;;;;1.17;0.80;;;;;;;;;;4996858;28;20077;-72
2023/09/20 07:47:11;;;;;;;1.23;0.73;;;;;;;;;;4998830;28;20053;-71
2023/09/20 07:49:36;;;;;;;1.02;0.90;;;;;;;;;;4996445;28;20046;-70
2023/09/20 07:52:04;;;;;;;2.63;0.98;;;;;;;;;;4997202;28;20060;-70
2023/09/20 07:54:29;;;;;;;2.38;0.98;;;;;;;;;;4998140;28;20049;-71
2023/09/20 07:56:55;;;;;;;1.15;1.08;;;;;;;;;;4979520;28;20057;-71
2023/09/20 07:59:23;;;;;;;4.55;0.88;;;;;;;;;;5000104;28;20062;-70
2023/09/20 08:01:50;;;;;;;0.98;0.90;;;;;;;;;;5001363;28;20045;-72
2023/09/20 08:04:18;;;;;;;1.45;1.00;;;;;;;;;;5002436;28;20045;-73
2023/09/20 08:06:43;;;;;;;1.38;0.80;;;;;;;;;;4997078;28;20524;-72
2023/09/20 08:09:09;;;;;;;1.08;0.93;;;;;;;;;;5000199;28;20081;-72
2023/09/20 08:11:35;;;;;;;3.95;0.90;;;;;;;;;;4998321;28;20049;-71
2023/09/20 08:14:03;;;;;;;0.90;0.90;;;;;;;;;;4998312;28;20056;-71
2023/09/20 08:16:33;;;;;;;1.40;1.05;;;;;;;;;;4997832;28;20506;-71
2023/09/20 08:21:40;;;;;;;1.95;1.10;;;;;;;;;;4997583;28;20058;-71
2023/09/20 09:00:21;;;;;;;0.85;0.77;;;;;;;;;;4997504;28;20084;-72
2023/09/20 09:02:57;;;;;;;1.30;1.08;;;;;;;;;;4995665;28;20519;-72
2023/09/20 09:05:25;;;;;;;1.05;0.90;;;;;;;;;;4997797;28;20050;-73
2023/09/20 09:07:51;;;;;;;1.58;0.90;;;;;;;;;;4996773;28;20053;-71
2023/09/20 09:10:18;;;;;;;0.90;0.90;;;;;;;;;;4997767;28;20045;-73
2023/09/20 09:12:44;;;;;;;1.17;1.08;;;;;;;;;;4995379;28;20063;-71
2023/09/20 09:15:11;;;;;;;1.73;0.80;;;;;;;;;;4997632;28;20156;-71
2023/09/20 09:17:46;;;;;;;0.95;0.90;;;;;;;;;;4996936;28;20050;-71
2023/09/20 09:20:13;;;;;;;1.15;0.90;;;;;;;;;;4997149;28;20134;-70
2023/09/20 09:22:44;;;;;;;1.00;0.80;;;;;;;;;;4996930;28;20050;-72
2023/09/20 09:25:14;;;;;;;1.73;0.80;;;;;;;;;;4996922;28;20108;-74
2023/09/20 09:27:41;;;;;;;0.95;0.80;;;;;;;;;;4996732;28;20800;-72
2023/09/20 09:30:12;;;;;;;1.75;0.88;;;;;;;;;;4997543;28;20050;-71
2023/09/20 09:32:39;;;;;;;4.03;0.80;;;;;;;;;;4996781;28;20140;-72
2023/09/20 09:35:06;;;;;;;1.55;0.90;;;;;;;;;;4996070;28;20077;-72
2023/09/20 09:37:33;;;;;;;2.13;0.90;;;;;;;;;;5012069;28;20746;-72
2023/09/20 09:40:04;;;;;;;1.70;0.90;;;;;;;;;;4997066;28;20065;-71
2023/09/20 09:42:30;;;;;;;0.80;0.80;;;;;;;;;;4997911;28;20030;-71
2023/09/20 09:44:56;;;;;;;1.55;1.02;;;;;;;;;;4999927;28;20073;-72
2023/09/20 09:47:24;;;;;;;1.55;1.15;;;;;;;;;;5000376;28;21211;-71
2023/09/20 09:49:51;;;;;;;1.00;0.90;;;;;;;;;;4998886;28;20060;-72
2023/09/20 09:52:17;;;;;;;1.33;1.00;;;;;;;;;;5000510;28;21020;-72
2023/09/20 09:54:46;;;;;;;1.38;1.13;;;;;;;;;;4999619;28;20042;-72
2023/09/20 09:57:12;;;;;;;2.20;0.90;;;;;;;;;;5000238;28;20054;-71
2023/09/20 09:59:39;;;;;;;1.23;1.10;;;;;;;;;;4999958;28;20061;-71
2023/09/20 10:02:17;;;;;;;3.70;1.20;;;;;;;;;;5000318;28;20048;-72
2023/09/20 10:04:52;;;;;;;2.03;0.95;;;;;;;;;;4999020;28;20049;-73
2023/09/20 10:07:22;;;;;;;3.63;1.00;;;;;;;;;;4998530;28;20049;-71
2023/09/20 10:09:50;;;;;;;1.92;1.13;;;;;;;;;;4999634;28;20060;-71
2023/09/20 10:12:17;;;;;;;1.00;0.90;;;;;;;;;;5000656;28;20445;-74
2023/09/20 10:14:43;;;;;;;1.33;1.20;;;;;;;;;;4999293;28;20636;-73
2023/09/20 10:17:15;;;;;;;1.98;1.00;;;;;;;;;;5000478;28;20509;-72
2023/09/20 10:19:41;;;;;;;1.33;0.90;;;;;;;;;;4999217;28;20042;-72
2023/09/20 10:22:09;;;;;;;1.35;1.10;;;;;;;;;;4999102;28;20088;-73
2023/09/20 10:24:58;;;;;;;1.70;1.00;;;;;;;;;;4999425;28;20705;-73
2023/09/20 10:27:34;;;;;;;1.23;1.13;;;;;;;;;;5000124;28;20050;-71
2023/09/20 10:30:10;;;;;;;1.58;1.27;;;;;;;;;;4996594;28;20921;-71
2023/09/20 10:32:47;;;;;;;1.20;1.10;;;;;;;;;;4998747;28;20044;-72
2023/09/20 10:35:29;;;;;;;1.63;1.33;;;;;;;;;;5000877;28;20919;-71
2023/09/20 10:38:05;;;;;;;1.42;1.20;;;;;;;;;;4999266;28;20058;-71
2023/09/20 10:40:45;;;;;;;3.85;1.08;;;;;;;;;;4999595;28;20839;-72
2023/09/20 10:43:15;;;;;;;0.90;0.90;;;;;;;;;;4981929;28;20093;-71
2023/09/20 10:45:40;;;;;;;1.00;0.90;;;;;;;;;;5001134;28;20044;-72
2023/09/20 10:48:15;;;;;;;2.72;1.00;;;;;;;;;;5000341;28;20053;-73
2023/09/20 10:50:49;;;;;;;2.08;1.10;;;;;;;;;;4997873;28;20037;-73
2023/09/20 10:53:19;;;;;;;1.05;1.00;;;;;;;;;;4997241;28;20503;-73
2023/09/20 10:55:45;;;;;;;1.35;1.25;;;;;;;;;;4997434;28;20041;-73
2023/09/20 10:58:14;;;;;;;2.85;1.30;;;;;;;;;;4998857;28;20121;-73
2023/09/20 11:00:40;;;;;;;1.25;1.15;;;;;;;;;;4996595;28;20054;-72
2023/09/20 11:03:10;;;;;;;4.40;1.35;;;;;;;;;;4998443;28;20046;-72
2023/09/20 11:05:36;;;;;;;2.50;1.25;;;;;;;;;;4995824;28;20501;-72
2023/09/20 11:08:06;;;;;;;1.33;1.20;;;;;;;;;;4997003;28;20577;-72
2023/09/20 11:10:35;;;;;;;0.90;0.90;;;;;;;;;;4996789;28;20100;-71
2023/09/20 11:13:06;;;;;;;1.02;0.95;;;;;;;;;;5000020;28;20943;-72
2023/09/20 11:15:36;;;;;;;;;;;;;;;;;;5004687;28;20084;-72
2023/09/20 11:18:01;;;;;;;1.27;0.80;;;;;;;;;;5001364;28;19921;-72
2023/09/20 11:20:30;;;;;;;1.00;0.82;;;;;;;;;;4999083;28;20115;-71
2023/09/20 11:22:56;;;;;;;1.38;0.90;;;;;;;;;;4996510;28;20048;-72
2023/09/20 11:25:22;;;;;;;0.98;0.85;;;;;;;;;;4997925;28;20041;-72
2023/09/20 11:27:48;;;;;;;0.73;0.70;;;;;;;;;;4998236;28;20084;-71
2023/09/20 11:30:13;;;;;;;1.45;0.82;;;;;;;;;;4998599;28;20041;-71
2023/09/20 11:32:39;;;;;;;1.05;0.98;;;;;;;;;;4998013;28;20124;-72
2023/09/20 11:35:06;;;;;;;1.02;0.85;;;;;;;;;;4998781;28;20045;-72
2023/09/20 11:37:35;;;;;;;0.70;0.70;;;;;;;;;;4997883;28;20046;-71
2023/09/20 11:40:01;;;;;;;1.33;0.88;;;;;;;;;;4996408;28;22442;-72
2023/09/20 11:42:30;;;;;;;1.25;0.85;;;;;;;;;;4998289;28;20570;-72
2023/09/20 11:45:05;;;;;;;3.97;1.05;;;;;;;;;;4997441;28;20042;-72
2023/09/20 11:47:31;;;;;;;0.70;0.70;;;;;;;;;;4998145;28;20070;-72
2023/09/20 11:49:58;;;;;;;0.93;0.60;;;;;;;;;;4998130;28;20054;-72
2023/09/20 11:52:24;;;;;;;1.75;0.82;;;;;;;;;;4998261;28;20474;-71
2023/09/20 11:54:50;;;;;;;0.63;0.63;;;;;;;;;;4996676;28;20045;-73
2023/09/20 11:57:19;;;;;;;1.13;0.82;;;;;;;;;;4997565;28;20072;-74
2023/09/20 11:59:45;;;;;;;1.48;0.80;;;;;;;;;;5011492;28;20057;-70
2023/09/20 12:02:12;;;;;;;0.82;0.77;;;;;;;;;;4997402;28;20526;-72
2023/09/20 12:04:38;;;;;;;0.75;0.63;;;;;;;;;;4997668;28;20050;-70
2023/09/20 12:07:07;;;;;;;0.65;0.65;;;;;;;;;;4997396;28;20186;-72
2023/09/20 12:09:33;;;;;;;2.95;0.98;;;;;;;;;;4997708;28;20111;-72
2023/09/20 12:11:59;;;;;;;1.50;0.70;;;;;;;;;;4995538;28;20052;-73
2023/09/20 12:14:24;;;;;;;1.38;0.82;;;;;;;;;;4996245;28;20478;-73
2023/09/20 12:16:50;;;;;;;0.75;0.75;;;;;;;;;;4995493;28;20064;-74
2023/09/20 12:19:18;;;;;;;0.60;0.60;;;;;;;;;;4997115;28;21236;-71
2023/09/20 12:21:44;;;;;;;1.05;0.70;;;;;;;;;;4996876;28;20046;-74
2023/09/20 12:24:11;;;;;;;0.63;0.57;;;;;;;;;;5000371;28;20064;-75
2023/09/20 12:26:37;;;;;;;2.15;0.50;;;;;;;;;;5002822;28;20109;-76
2023/09/20 12:29:03;;;;;;;0.98;0.75;;;;;;;;;;5003537;28;20088;-74
2023/09/20 12:31:28;;;;;;;0.65;0.63;;;;;;;;;;5001616;28;20125;-73
2023/09/20 12:33:54;;;;;;;0.68;0.57;;;;;;;;;;4998322;28;20125;-74
2023/09/20 12:36:23;;;;;;;0.98;0.95;;;;;;;;;;4995319;28;20113;-75
2023/09/20 12:38:49;;;;;;;0.50;0.50;;;;;;;;;;5010622;28;20065;-75
2023/09/20 12:41:15;;;;;;;0.70;0.70;;;;;;;;;;4997161;28;20426;-75
2023/09/20 12:43:40;;;;;;;0.85;0.70;;;;;;;;;;4996099;28;20537;-73
2023/09/20 12:46:07;;;;;;;1.05;0.85;;;;;;;;;;4995473;28;20104;-73
2023/09/20 12:48:33;;;;;;;3.63;0.80;;;;;;;;;;4996793;28;20053;-73
2023/09/20 12:50:59;;;;;;;1.00;0.80;;;;;;;;;;4995300;28;20102;-72
2023/09/20 12:53:24;;;;;;;0.50;0.50;;;;;;;;;;4996466;28;20116;-72
2023/09/20 12:55:50;;;;;;;2.22;0.73;;;;;;;;;;4996580;28;20033;-72
2023/09/20 12:58:16;;;;;;;0.65;0.65;;;;;;;;;;4996340;28;20431;-72
2023/09/20 13:00:42;;;;;;;0.60;0.60;;;;;;;;;;4995293;28;20058;-71
2023/09/20 13:03:08;;;;;;;1.60;0.80;;;;;;;;;;4976943;28;20046;-71
2023/09/20 13:05:37;;;;;;;1.00;0.73;;;;;;;;;;4992669;28;20104;-72
2023/09/20 13:08:03;;;;;;;0.77;0.77;;;;;;;;;;4992582;28;20046;-72
2023/09/20 13:10:29;;;;;;;0.80;0.70;;;;;;;;;;4993558;28;20042;-71
2023/09/20 13:12:55;;;;;;;2.20;0.82;;;;;;;;;;4995349;28;20058;-71
2023/09/20 13:15:21;;;;;;;1.15;0.70;;;;;;;;;;4996414;28;20067;-71
2023/09/20 13:17:51;;;;;;;0.73;0.73;;;;;;;;;;4998462;28;20041;-71
2023/09/20 13:20:18;;;;;;;2.50;0.80;;;;;;;;;;5001999;28;20045;-72
2023/09/20 13:22:45;;;;;;;1.65;0.60;;;;;;;;;;5000135;28;20049;-72
2023/09/20 13:25:14;;;;;;;1.27;0.70;;;;;;;;;;5000333;28;20141;-72
2023/09/20 13:27:42;;;;;;;1.63;0.60;;;;;;;;;;4981384;28;20437;-72
2023/09/20 13:30:10;;;;;;;0.70;0.70;;;;;;;;;;4998543;28;20054;-73
2023/09/20 13:32:39;;;;;;;0.95;0.60;;;;;;;;;;4997075;28;20052;-73
2023/09/20 13:35:08;;;;;;;0.93;0.80;;;;;;;;;;5000560;28;20129;-72
2023/09/20 13:37:34;;;;;;;1.05;0.73;;;;;;;;;;4999446;28;20518;-72
2023/09/20 13:40:00;;;;;;;0.80;0.80;;;;;;;;;;4998524;28;20042;-72
2023/09/20 13:42:26;;;;;;;0.95;0.70;;;;;;;;;;5000643;28;20076;-72
2023/09/20 13:44:52;;;;;;;1.23;0.90;;;;;;;;;;4997033;28;20144;-72
2023/09/20 13:47:18;;;;;;;2.65;0.90;;;;;;;;;;4997038;28;20042;-72
2023/09/20 13:49:53;;;;;;;5.53;0.90;;;;;;;;;;5000626;28;20581;-72
2023/09/20 13:52:18;;;;;;;0.80;0.80;;;;;;;;;;4999982;28;20137;-73
2023/09/20 13:54:47;;;;;;;0.98;0.80;;;;;;;;;;4998692;28;20045;-72
2023/09/20 13:57:12;;;;;;;1.27;0.80;;;;;;;;;;4999996;28;20050;-73
2023/09/20 13:59:38;;;;;;;0.98;0.70;;;;;;;;;;4999951;28;20055;-71
2023/09/20 14:02:03;;;;;;;1.30;0.98;;;;;;;;;;4998685;28;20037;-72
2023/09/20 14:04:29;;;;;;;0.70;0.70;;;;;;;;;;4997767;28;20406;-72
2023/09/20 14:06:55;;;;;;;1.00;0.90;;;;;;;;;;4996442;28;20892;-72
2023/09/20 14:09:22;;;;;;;0.80;0.80;;;;;;;;;;4994618;28;20153;-73
2023/09/20 14:11:48;;;;;;;2.55;1.20;;;;;;;;;;5011380;28;20494;-72
2023/09/20 14:14:14;;;;;;;1.25;0.82;;;;;;;;;;4997686;28;20049;-72
2023/09/20 14:16:40;;;;;;;4.28;0.90;;;;;;;;;;4999450;28;20128;-72
2023/09/20 14:19:06;;;;;;;1.40;0.90;;;;;;;;;;4998486;28;20127;-73
2023/09/20 14:21:31;;;;;;;1.33;1.00;;;;;;;;;;5000193;28;20058;-71
2023/09/20 14:23:58;;;;;;;2.85;0.90;;;;;;;;;;5001488;28;20050;-70
2023/09/20 14:26:27;;;;;;;2.28;1.33;;;;;;;;;;5002624;28;20388;-71
2023/09/20 14:28:54;;;;;;;3.70;1.10;;;;;;;;;;5000042;28;20412;-70
2023/09/20 14:31:19;;;;;;;2.42;1.05;;;;;;;;;;4999583;28;20072;-72
2023/09/20 14:33:45;;;;;;;1.13;1.02;;;;;;;;;;4999563;28;20041;-70
2023/09/20 14:36:11;;;;;;;2.08;1.13;;;;;;;;;;4999102;28;20136;-71
2023/09/20 14:38:39;;;;;;;0.75;0.75;;;;;;;;;;4996073;28;20058;-72
2023/09/20 14:41:05;;;;;;;1.95;0.95;;;;;;;;;;4998967;28;20057;-71
2023/09/20 14:43:31;;;;;;;1.25;1.15;;;;;;;;;;4998783;28;20045;-71
2023/09/20 14:45:57;;;;;;;1.38;1.05;;;;;;;;;;4997864;28;20042;-70
2023/09/20 14:48:23;;;;;;;1.63;1.10;;;;;;;;;;5013712;28;20061;-69
2023/09/20 14:50:49;;;;;;;1.30;1.20;;;;;;;;;;5013318;28;20041;-69
2023/09/20 14:53:18;;;;;;;2.85;1.00;;;;;;;;;;4991852;28;20045;-70
2023/09/20 14:55:45;;;;;;;2.05;1.10;;;;;;;;;;4996563;28;20121;-70
2023/09/20 14:58:11;;;;;;;3.35;1.00;;;;;;;;;;4996949;28;20112;-70
2023/09/20 15:00:38;;;;;;;1.08;1.00;;;;;;;;;;4996971;28;20057;-70
2023/09/20 15:03:04;;;;;;;1.33;1.15;;;;;;;;;;4995008;28;20053;-70
2023/09/20 15:05:31;;;;;;;4.22;1.15;;;;;;;;;;4997311;28;20050;-71
2023/09/20 15:07:57;;;;;;;1.10;1.00;;;;;;;;;;4996720;28;20698;-71
2023/09/20 15:10:25;;;;;;;2.83;0.82;;;;;;;;;;5013675;28;20053;-71
2023/09/20 15:12:58;;;;;;;1.05;0.82;;;;;;;;;;4998368;28;20128;-71
2023/09/20 15:15:24;;;;;;;3.00;0.95;;;;;;;;;;4998702;28;20042;-71
2023/09/20 15:17:51;;;;;;;1.10;1.00;;;;;;;;;;4997631;28;20111;-70
2023/09/20 15:20:18;;;;;;;1.25;1.15;;;;;;;;;;4997974;28;20107;-70
2023/09/20 15:22:44;;;;;;;3.15;1.30;;;;;;;;;;4997875;28;20045;-70